Haggerty Girls — WDG9740 — position and weather

sailwx.info

Track history (hours):
 
Tides and Currents Weather Stations Pressure Air Temp Water Temp Dewpoint Dewpoint Depression Visibility Wind Speed Wind Dir Waves Ship Positions

Haggerty Girls

Owner: REINAUER TRANSPORTATION CO.,LLC, STATEN ISLAND, NY. More information available from US FCC via Universal Licensing System and Coast Guard Vessel Documentation Center.

Last reported at 2017-Nov-18 01:48 UTC. Time now 2017-Nov-19 05:10 UTC.
Position N 40°57' W 073°54'.

Length 146 m; draft 7.5 m.

Type: . MMSI: 367590780.

Date/timePositionNaut miles runAvg speedWind from/ knotsBaromVisibWave heightAir tempDewpointWater temp
2017-Nov-18 01:48N 40°57' W 073°54'311.2
2017-Nov-18 01:30N 40°54' W 073°55'611.3
2017-Nov-18 01:00N 40°49' W 073°58'511.0
2017-Nov-18 00:30N 40°44' W 074°01'510.3
2017-Nov-18 00:00N 40°39' W 074°03'4 7.9
2017-Nov-17 23:30N 40°39' W 074°09'2 4.7
2017-Nov-17 23:00N 40°38' W 074°12'3 5.2
2017-Nov-17 22:30N 40°36' W 074°12'3 5.6
2017-Nov-17 22:00N 40°33' W 074°14'2 0.2
2017-Nov-17 11:17N 40°31' W 074°15'0 0.0
2017-Nov-17 10:58N 40°31' W 074°15'2 4.4
2017-Nov-17 10:28N 40°33' W 074°14'3 7.1
2017-Nov-17 10:00N 40°37' W 074°12'3 6.8
2017-Nov-17 09:30N 40°39' W 074°09'1 1.6
2017-Nov-17 09:00N 40°38' W 074°08'0 0.0
2017-Nov-17 08:30N 40°38' W 074°08'0 0.0
2017-Nov-17 08:00N 40°38' W 074°08'0 0.0
2017-Nov-17 07:30N 40°38' W 074°08'0 0.0
2017-Nov-17 07:00N 40°38' W 074°08'0 0.2
2017-Nov-17 06:31N 40°39' W 074°08'4 7.3
2017-Nov-17 06:00N 40°37' W 074°12'4 7.7
2017-Nov-17 05:29N 40°33' W 074°14'2 3.7
2017-Nov-17 04:53N 40°31' W 074°15'0 0.1
2017-Nov-17 04:27N 40°31' W 074°15'3 6.3
2017-Nov-17 04:00N 40°34' W 074°13'4 8.2
2017-Nov-17 03:30N 40°38' W 074°12'4 7.7
2017-Nov-17 03:00N 40°39' W 074°07'4 8.0
2017-Nov-17 02:30N 40°40' W 074°03'510.0
2017-Nov-17 02:00N 40°44' W 073°58'5 9.9
2017-Nov-17 01:30N 40°48' W 073°54'5 9.1
2017-Nov-17 01:00N 40°48' W 073°48'5 8.8
2017-Nov-17 00:26N 40°52' W 073°44'51 9.4
2017-Nov-16 19:03N 41°06' W 072°40'0 8.7
2017-Nov-16 19:00N 41°07' W 072°39'4 8.4
2017-Nov-16 18:30N 41°08' W 072°34'4 8.2
2017-Nov-16 18:00N 41°09' W 072°29'4 7.7
2017-Nov-16 17:30N 41°10' W 072°24'4 7.5
2017-Nov-16 17:00N 41°11' W 072°19'4 7.5
2017-Nov-16 16:30N 41°12' W 072°14'4 7.7
2017-Nov-16 16:00N 41°14' W 072°09'43 8.5
2017-Nov-16 10:57N 41°34' W 071°19'4 9.1
2017-Nov-16 10:30N 41°38' W 071°18'4 9.2
2017-Nov-16 10:00N 41°42' W 071°20'4 8.9
2017-Nov-16 09:30N 41°46' W 071°23'1 2.1
2017-Nov-16 09:00N 41°47' W 071°22'0 0.0
2017-Nov-16 08:30N 41°47' W 071°22'0 0.0
2017-Nov-16 08:00N 41°47' W 071°22'0 0.0
2017-Nov-16 07:24N 41°47' W 071°22'0 0.0
2017-Nov-16 07:00N 41°47' W 071°22'0 0.0
2017-Nov-16 06:29N 41°47' W 071°22'0 0.0
2017-Nov-16 06:00N 41°47' W 071°22'0 0.0
2017-Nov-16 05:30N 41°47' W 071°22'0 0.0
2017-Nov-16 05:00N 41°47' W 071°22'0 0.0
2017-Nov-16 04:24N 41°47' W 071°22'0 0.0
2017-Nov-16 04:00N 41°47' W 071°22'0 0.0
2017-Nov-16 03:24N 41°47' W 071°22'0 0.0
2017-Nov-16 02:48N 41°47' W 071°22'0 0.0
2017-Nov-16 02:06N 41°47' W 071°22'0 0.0
2017-Nov-16 02:00N 41°47' W 071°22'0 0.0
2017-Nov-16 01:30N 41°47' W 071°22'0 0.0
2017-Nov-16 01:00N 41°47' W 071°22'0 0.0
2017-Nov-16 00:30N 41°47' W 071°22'0 0.0
2017-Nov-16 00:00N 41°47' W 071°22'0 0.0
2017-Nov-15 23:30N 41°47' W 071°22'0 0.0
2017-Nov-15 22:59N 41°47' W 071°22'0 0.0
2017-Nov-15 22:30N 41°47' W 071°22'0 0.0
2017-Nov-15 22:00N 41°47' W 071°22'0 0.0
2017-Nov-15 21:30N 41°47' W 071°22'0 0.0
2017-Nov-15 21:00N 41°47' W 071°22'1 1.3
2017-Nov-15 20:30N 41°46' W 071°22'4 9.1
2017-Nov-15 20:00N 41°42' W 071°20'5 9.6
2017-Nov-15 19:31N 41°38' W 071°18'5 9.7
2017-Nov-15 18:59N 41°33' W 071°20'50 6.4
2017-Nov-15 11:09N 42°07' W 070°31'1 9.5
2017-Nov-15 11:00N 42°08' W 070°32'5 9.4
2017-Nov-15 10:30N 42°12' W 070°36'5 9.3
2017-Nov-15 10:00N 42°15' W 070°40'4 9.0
2017-Nov-15 09:30N 42°18' W 070°44'5 9.1
2017-Nov-15 09:00N 42°21' W 070°49'4 8.1
2017-Nov-15 08:30N 42°22' W 070°54'4 8.6
2017-Nov-15 08:00N 42°20' W 070°59'4 7.5
2017-Nov-15 07:30N 42°23' W 071°03'2 3.2
2017-Nov-15 07:00N 42°24' W 071°01'0 0.5
2017-Nov-15 06:30N 42°24' W 071°01'0 0.0
2017-Nov-15 06:00N 42°24' W 071°01'0 0.0
2017-Nov-15 05:27N 42°24' W 071°01'0 0.0
2017-Nov-15 05:00N 42°24' W 071°01'0 0.0
2017-Nov-15 04:30N 42°24' W 071°01'0 0.0
2017-Nov-15 04:00N 42°24' W 071°01'0 0.0
2017-Nov-15 03:30N 42°24' W 071°01'0 0.0
2017-Nov-15 03:00N 42°24' W 071°01'0 0.0
2017-Nov-15 02:30N 42°24' W 071°01'0 0.0
2017-Nov-15 02:00N 42°24' W 071°01'0 0.0
2017-Nov-15 01:30N 42°24' W 071°01'0 0.0
2017-Nov-15 01:00N 42°24' W 071°01'0 0.0
2017-Nov-15 00:30N 42°24' W 071°01'0 0.0
2017-Nov-15 00:00N 42°24' W 071°01'0 0.0
2017-Nov-14 23:30N 42°24' W 071°01'0 0.0
2017-Nov-14 23:00N 42°24' W 071°01'0 0.0
2017-Nov-14 22:30N 42°24' W 071°01'0 0.0
2017-Nov-14 22:00N 42°24' W 071°01'0 0.0
2017-Nov-14 21:30N 42°24' W 071°01'0 0.0
2017-Nov-14 21:00N 42°24' W 071°01'0 0.0
2017-Nov-14 20:30N 42°24' W 071°01'0 0.0
2017-Nov-14 20:00N 42°24' W 071°01'1 2.3
2017-Nov-14 19:30N 42°23' W 071°02'2 3.1
2017-Nov-14 19:00N 42°22' W 071°02'0 0.4
2017-Nov-14 18:29N 42°21' W 071°02'0 0.0
2017-Nov-14 17:50N 42°21' W 071°02'0 0.0
2017-Nov-14 17:29N 42°21' W 071°02'0 0.0
2017-Nov-14 16:56N 42°21' W 071°02'0 0.0
2017-Nov-14 16:29N 42°21' W 071°02'0 0.0
2017-Nov-14 15:56N 42°21' W 071°02'0 0.0
2017-Nov-14 15:29N 42°21' W 071°02'0 0.0
2017-Nov-14 14:59N 42°21' W 071°02'0 0.0
2017-Nov-14 14:29N 42°21' W 071°02'0 0.0
2017-Nov-14 13:59N 42°21' W 071°02'0 0.0
2017-Nov-14 13:29N 42°21' W 071°02'0 0.0
2017-Nov-14 12:59N 42°21' W 071°02'0 0.1
2017-Nov-14 12:14N 42°21' W 071°02'0 0.1
2017-Nov-14 11:59N 42°21' W 071°02'0 0.0
2017-Nov-14 11:29N 42°21' W 071°02'0 0.0
2017-Nov-14 10:59N 42°21' W 071°02'0 0.1
2017-Nov-14 10:29N 42°21' W 071°02'0 0.0
2017-Nov-14 09:59N 42°21' W 071°02'0 0.0
2017-Nov-14 09:23N 42°21' W 071°02'0 0.0
2017-Nov-14 08:59N 42°21' W 071°02'0 0.0
2017-Nov-14 08:26N 42°21' W 071°02'0 0.0
2017-Nov-14 07:59N 42°21' W 071°02'0 0.0
2017-Nov-14 07:29N 42°21' W 071°02'0 0.1
2017-Nov-14 06:56N 42°21' W 071°02'0 0.1
2017-Nov-14 06:29N 42°21' W 071°02'0 0.0
2017-Nov-14 05:50N 42°21' W 071°02'0 0.1
2017-Nov-14 05:30N 42°21' W 071°02'2 4.7
2017-Nov-14 05:00N 42°20' W 070°59'4 7.3
2017-Nov-14 04:30N 42°22' W 070°55'4 7.6
2017-Nov-14 04:00N 42°22' W 070°50'4 8.9
2017-Nov-14 03:30N 42°19' W 070°46'4 8.5
2017-Nov-14 03:00N 42°16' W 070°41'4 8.8
2017-Nov-14 02:30N 42°12' W 070°39'  
2017-Nov-11 04:54N 40°57' W 073°54'4 9.3
2017-Nov-11 04:30N 40°54' W 073°55'4 8.7
2017-Nov-11 04:00N 40°50' W 073°58'4 8.3
2017-Nov-11 03:30N 40°46' W 074°00'4 7.6
2017-Nov-11 03:01N 40°43' W 074°02'1 2.9
2017-Nov-11 02:31N 40°41' W 074°01'4 8.6
2017-Nov-11 02:00N 40°45' W 073°58'5 9.4
2017-Nov-11 01:30N 40°48' W 073°53'4 8.9
2017-Nov-11 01:00N 40°49' W 073°47'5 9.4
2017-Nov-11 00:28N 40°53' W 073°43'49 9.6
2017-Nov-10 19:18N 41°11' W 072°42'310.3
2017-Nov-10 19:00N 41°12' W 072°38'510.4
2017-Nov-10 18:30N 41°12' W 072°31'510.6
2017-Nov-10 18:01N 41°13' W 072°24'610.9
2017-Nov-10 17:30N 41°14' W 072°17'92 7.7
2017-Nov-10 05:27N 42°08' W 070°36'4 9.6
2017-Nov-10 05:00N 42°11' W 070°39'5 9.5
2017-Nov-10 04:30N 42°16' W 070°41'5 9.0
2017-Nov-10 04:00N 42°19' W 070°45'5 9.3
2017-Nov-10 03:31N 42°22' W 070°49'4 8.5
2017-Nov-10 03:00N 42°22' W 070°55'4 8.2
2017-Nov-10 02:30N 42°20' W 071°00'2 4.1
2017-Nov-10 02:00N 42°22' W 071°02'0 0.2
2017-Nov-10 01:30N 42°22' W 071°02'1 2.9
2017-Nov-10 01:00N 42°23' W 071°02'1 2.1
2017-Nov-10 00:30N 42°24' W 071°01'0 0.0
2017-Nov-10 00:00N 42°24' W 071°01'0 0.0
2017-Nov-09 23:30N 42°24' W 071°01'0 0.0
2017-Nov-09 23:01N 42°24' W 071°01'0 0.0
2017-Nov-09 22:30N 42°24' W 071°01'0 0.0
2017-Nov-09 22:00N 42°24' W 071°01'0 0.0
2017-Nov-09 21:30N 42°24' W 071°01'0 0.0
2017-Nov-09 21:01N 42°24' W 071°01'0 0.0
2017-Nov-09 20:30N 42°24' W 071°01'0 0.0
2017-Nov-09 20:00N 42°24' W 071°01'0 0.0
2017-Nov-09 19:30N 42°24' W 071°01'0 0.0
2017-Nov-09 19:01N 42°24' W 071°01'0 0.0
2017-Nov-09 18:30N 42°24' W 071°01'0 0.0
2017-Nov-09 18:00N 42°24' W 071°01'0 0.0
2017-Nov-09 17:30N 42°24' W 071°01'0 0.1
2017-Nov-09 17:00N 42°24' W 071°01'2 3.4
2017-Nov-09 16:31N 42°23' W 071°03'1 0.7
2017-Nov-09 15:43N 42°23' W 071°03'0 0.1
2017-Nov-09 15:21N 42°23' W 071°03'0 0.0
2017-Nov-09 15:00N 42°23' W 071°03'0 0.0
2017-Nov-09 14:31N 42°23' W 071°03'0 0.0
2017-Nov-09 13:31N 42°23' W 071°03'0 0.0
2017-Nov-09 13:30N 42°23' W 071°03'0 0.0
2017-Nov-09 12:50N 42°23' W 071°03'0 0.0
2017-Nov-09 12:29N 42°23' W 071°03'0 0.0
2017-Nov-09 12:00N 42°23' W 071°03'0 0.0
2017-Nov-09 11:29N 42°23' W 071°03'0 0.0
2017-Nov-09 11:00N 42°23' W 071°03'0 0.0
2017-Nov-09 10:29N 42°23' W 071°03'0 0.0
2017-Nov-09 10:00N 42°23' W 071°03'0 0.0
2017-Nov-09 09:28N 42°23' W 071°03'0 0.0
2017-Nov-09 08:57N 42°23' W 071°03'0 0.0
2017-Nov-09 08:30N 42°23' W 071°03'0 0.0
2017-Nov-09 06:31N 42°23' W 071°03'0 0.0
2017-Nov-09 06:30N 42°23' W 071°03'0 0.0
2017-Nov-09 05:49N 42°23' W 071°03'0 0.0
2017-Nov-09 05:29N 42°23' W 071°03'0 0.0
2017-Nov-09 05:00N 42°23' W 071°03'0 0.0
2017-Nov-09 04:18N 42°23' W 071°03'0 0.0
2017-Nov-09 04:00N 42°23' W 071°03'0 0.0
2017-Nov-09 03:30N 42°23' W 071°03'0 0.0
2017-Nov-09 03:00N 42°23' W 071°03'0 0.1
2017-Nov-09 02:09N 42°23' W 071°03'0 0.7
2017-Nov-09 01:59N 42°23' W 071°03'2 4.3
2017-Nov-09 01:30N 42°21' W 071°02'4 8.4
2017-Nov-09 01:00N 42°21' W 070°56'4 8.2
2017-Nov-09 00:30N 42°23' W 070°52'4 8.3
2017-Nov-09 00:01N 42°21' W 070°47'5 9.0
2017-Nov-08 23:30N 42°18' W 070°43'4 8.7
2017-Nov-08 23:00N 42°14' W 070°40'49 4.7
2017-Nov-08 12:38N 41°34' W 071°19'3 9.2
2017-Nov-08 12:19N 41°37' W 071°18'3 9.1
2017-Nov-08 12:00N 41°40' W 071°19'4 8.8
2017-Nov-08 11:30N 41°44' W 071°22'3 6.8
2017-Nov-08 11:00N 41°47' W 071°22'0 0.0
2017-Nov-08 10:17N 41°47' W 071°22'0 0.0
2017-Nov-08 09:59N 41°47' W 071°22'0 0.0
2017-Nov-08 09:29N 41°47' W 071°22'0 0.0
2017-Nov-08 08:59N 41°47' W 071°22'0 0.0
2017-Nov-08 08:29N 41°47' W 071°22'0 0.0
2017-Nov-08 07:59N 41°47' W 071°22'0 0.0
2017-Nov-08 07:29N 41°47' W 071°22'0 0.0
2017-Nov-08 07:00N 41°47' W 071°22'0 0.0
2017-Nov-08 06:30N 41°47' W 071°22'0 0.0
2017-Nov-08 06:00N 41°47' W 071°22'0 0.0
2017-Nov-08 05:24N 41°47' W 071°22'0 0.0
2017-Nov-08 05:00N 41°47' W 071°22'0 0.0
2017-Nov-08 04:30N 41°47' W 071°22'0 0.0
2017-Nov-08 03:53N 41°47' W 071°22'0 0.0
2017-Nov-08 03:30N 41°47' W 071°22'0 0.0
2017-Nov-08 03:00N 41°47' W 071°22'0 0.0
2017-Nov-08 02:30N 41°47' W 071°22'0 0.0
2017-Nov-08 01:54N 41°47' W 071°22'  
Track history (hours):
 
Tides and Currents Weather Stations Pressure Air Temp Water Temp Dewpoint Dewpoint Depression Visibility Wind Speed Wind Dir Waves Ship Positions

Haggerty Girls

Owner: REINAUER TRANSPORTATION CO.,LLC, STATEN ISLAND, NY. More information available from US FCC via Universal Licensing System and Coast Guard Vessel Documentation Center.

Last reported at 2017-Nov-18 01:48 UTC. Time now 2017-Nov-19 05:10 UTC.
Position N 40°57' W 073°54'.

Length 146 m; draft 7.5 m.

Type: . MMSI: 367590780.

Date/timePositionNaut miles runAvg speedWind from/ knotsBaromVisibWave heightAir tempDewpointWater temp
2017-Nov-18 01:48N 40°57' W 073°54'311.2
2017-Nov-18 01:30N 40°54' W 073°55'611.3
2017-Nov-18 01:00N 40°49' W 073°58'511.0
2017-Nov-18 00:30N 40°44' W 074°01'510.3
2017-Nov-18 00:00N 40°39' W 074°03'4 7.9
2017-Nov-17 23:30N 40°39' W 074°09'2 4.7
2017-Nov-17 23:00N 40°38' W 074°12'3 5.2
2017-Nov-17 22:30N 40°36' W 074°12'3 5.6
2017-Nov-17 22:00N 40°33' W 074°14'2 0.2
2017-Nov-17 11:17N 40°31' W 074°15'0 0.0
2017-Nov-17 10:58N 40°31' W 074°15'2 4.4
2017-Nov-17 10:28N 40°33' W 074°14'3 7.1
2017-Nov-17 10:00N 40°37' W 074°12'3 6.8
2017-Nov-17 09:30N 40°39' W 074°09'1 1.6
2017-Nov-17 09:00N 40°38' W 074°08'0 0.0
2017-Nov-17 08:30N 40°38' W 074°08'0 0.0
2017-Nov-17 08:00N 40°38' W 074°08'0 0.0
2017-Nov-17 07:30N 40°38' W 074°08'0 0.0
2017-Nov-17 07:00N 40°38' W 074°08'0 0.2
2017-Nov-17 06:31N 40°39' W 074°08'4 7.3
2017-Nov-17 06:00N 40°37' W 074°12'4 7.7
2017-Nov-17 05:29N 40°33' W 074°14'2 3.7
2017-Nov-17 04:53N 40°31' W 074°15'0 0.1
2017-Nov-17 04:27N 40°31' W 074°15'3 6.3
2017-Nov-17 04:00N 40°34' W 074°13'4 8.2
2017-Nov-17 03:30N 40°38' W 074°12'4 7.7
2017-Nov-17 03:00N 40°39' W 074°07'4 8.0
2017-Nov-17 02:30N 40°40' W 074°03'510.0
2017-Nov-17 02:00N 40°44' W 073°58'5 9.9
2017-Nov-17 01:30N 40°48' W 073°54'5 9.1
2017-Nov-17 01:00N 40°48' W 073°48'5 8.8
2017-Nov-17 00:26N 40°52' W 073°44'51 9.4
2017-Nov-16 19:03N 41°06' W 072°40'0 8.7
2017-Nov-16 19:00N 41°07' W 072°39'4 8.4
2017-Nov-16 18:30N 41°08' W 072°34'4 8.2
2017-Nov-16 18:00N 41°09' W 072°29'4 7.7
2017-Nov-16 17:30N 41°10' W 072°24'4 7.5
2017-Nov-16 17:00N 41°11' W 072°19'4 7.5
2017-Nov-16 16:30N 41°12' W 072°14'4 7.7
2017-Nov-16 16:00N 41°14' W 072°09'43 8.5
2017-Nov-16 10:57N 41°34' W 071°19'4 9.1
2017-Nov-16 10:30N 41°38' W 071°18'4 9.2
2017-Nov-16 10:00N 41°42' W 071°20'4 8.9
2017-Nov-16 09:30N 41°46' W 071°23'1 2.1
2017-Nov-16 09:00N 41°47' W 071°22'0 0.0
2017-Nov-16 08:30N 41°47' W 071°22'0 0.0
2017-Nov-16 08:00N 41°47' W 071°22'0 0.0
2017-Nov-16 07:24N 41°47' W 071°22'0 0.0
2017-Nov-16 07:00N 41°47' W 071°22'0 0.0
2017-Nov-16 06:29N 41°47' W 071°22'0 0.0
2017-Nov-16 06:00N 41°47' W 071°22'0 0.0
2017-Nov-16 05:30N 41°47' W 071°22'0 0.0
2017-Nov-16 05:00N 41°47' W 071°22'0 0.0
2017-Nov-16 04:24N 41°47' W 071°22'0 0.0
2017-Nov-16 04:00N 41°47' W 071°22'0 0.0
2017-Nov-16 03:24N 41°47' W 071°22'0 0.0
2017-Nov-16 02:48N 41°47' W 071°22'0 0.0
2017-Nov-16 02:06N 41°47' W 071°22'0 0.0
2017-Nov-16 02:00N 41°47' W 071°22'0 0.0
2017-Nov-16 01:30N 41°47' W 071°22'0 0.0
2017-Nov-16 01:00N 41°47' W 071°22'0 0.0
2017-Nov-16 00:30N 41°47' W 071°22'0 0.0
2017-Nov-16 00:00N 41°47' W 071°22'0 0.0
2017-Nov-15 23:30N 41°47' W 071°22'0 0.0
2017-Nov-15 22:59N 41°47' W 071°22'0 0.0
2017-Nov-15 22:30N 41°47' W 071°22'0 0.0
2017-Nov-15 22:00N 41°47' W 071°22'0 0.0
2017-Nov-15 21:30N 41°47' W 071°22'0 0.0
2017-Nov-15 21:00N 41°47' W 071°22'1 1.3
2017-Nov-15 20:30N 41°46' W 071°22'4 9.1
2017-Nov-15 20:00N 41°42' W 071°20'5 9.6
2017-Nov-15 19:31N 41°38' W 071°18'5 9.7
2017-Nov-15 18:59N 41°33' W 071°20'50 6.4
2017-Nov-15 11:09N 42°07' W 070°31'1 9.5
2017-Nov-15 11:00N 42°08' W 070°32'5 9.4
2017-Nov-15 10:30N 42°12' W 070°36'5 9.3
2017-Nov-15 10:00N 42°15' W 070°40'4 9.0
2017-Nov-15 09:30N 42°18' W 070°44'5 9.1
2017-Nov-15 09:00N 42°21' W 070°49'4 8.1
2017-Nov-15 08:30N 42°22' W 070°54'4 8.6
2017-Nov-15 08:00N 42°20' W 070°59'4 7.5
2017-Nov-15 07:30N 42°23' W 071°03'2 3.2
2017-Nov-15 07:00N 42°24' W 071°01'0 0.5
2017-Nov-15 06:30N 42°24' W 071°01'0 0.0
2017-Nov-15 06:00N 42°24' W 071°01'0 0.0
2017-Nov-15 05:27N 42°24' W 071°01'0 0.0
2017-Nov-15 05:00N 42°24' W 071°01'0 0.0
2017-Nov-15 04:30N 42°24' W 071°01'0 0.0
2017-Nov-15 04:00N 42°24' W 071°01'0 0.0
2017-Nov-15 03:30N 42°24' W 071°01'0 0.0
2017-Nov-15 03:00N 42°24' W 071°01'0 0.0
2017-Nov-15 02:30N 42°24' W 071°01'0 0.0
2017-Nov-15 02:00N 42°24' W 071°01'0 0.0
2017-Nov-15 01:30N 42°24' W 071°01'0 0.0
2017-Nov-15 01:00N 42°24' W 071°01'0 0.0
2017-Nov-15 00:30N 42°24' W 071°01'0 0.0
2017-Nov-15 00:00N 42°24' W 071°01'0 0.0
2017-Nov-14 23:30N 42°24' W 071°01'0 0.0
2017-Nov-14 23:00N 42°24' W 071°01'0 0.0
2017-Nov-14 22:30N 42°24' W 071°01'0 0.0
2017-Nov-14 22:00N 42°24' W 071°01'0 0.0
2017-Nov-14 21:30N 42°24' W 071°01'0 0.0
2017-Nov-14 21:00N 42°24' W 071°01'0 0.0
2017-Nov-14 20:30N 42°24' W 071°01'0 0.0
2017-Nov-14 20:00N 42°24' W 071°01'1 2.3
2017-Nov-14 19:30N 42°23' W 071°02'2 3.1
2017-Nov-14 19:00N 42°22' W 071°02'0 0.4
2017-Nov-14 18:29N 42°21' W 071°02'0 0.0
2017-Nov-14 17:50N 42°21' W 071°02'0 0.0
2017-Nov-14 17:29N 42°21' W 071°02'0 0.0
2017-Nov-14 16:56N 42°21' W 071°02'0 0.0
2017-Nov-14 16:29N 42°21' W 071°02'0 0.0
2017-Nov-14 15:56N 42°21' W 071°02'0 0.0
2017-Nov-14 15:29N 42°21' W 071°02'0 0.0
2017-Nov-14 14:59N 42°21' W 071°02'0 0.0
2017-Nov-14 14:29N 42°21' W 071°02'0 0.0
2017-Nov-14 13:59N 42°21' W 071°02'0 0.0
2017-Nov-14 13:29N 42°21' W 071°02'0 0.0
2017-Nov-14 12:59N 42°21' W 071°02'0 0.1
2017-Nov-14 12:14N 42°21' W 071°02'0 0.1
2017-Nov-14 11:59N 42°21' W 071°02'0 0.0
2017-Nov-14 11:29N 42°21' W 071°02'0 0.0
2017-Nov-14 10:59N 42°21' W 071°02'0 0.1
2017-Nov-14 10:29N 42°21' W 071°02'0 0.0
2017-Nov-14 09:59N 42°21' W 071°02'0 0.0
2017-Nov-14 09:23N 42°21' W 071°02'0 0.0
2017-Nov-14 08:59N 42°21' W 071°02'0 0.0
2017-Nov-14 08:26N 42°21' W 071°02'0 0.0
2017-Nov-14 07:59N 42°21' W 071°02'0 0.0
2017-Nov-14 07:29N 42°21' W 071°02'0 0.1
2017-Nov-14 06:56N 42°21' W 071°02'0 0.1
2017-Nov-14 06:29N 42°21' W 071°02'0 0.0
2017-Nov-14 05:50N 42°21' W 071°02'0 0.1
2017-Nov-14 05:30N 42°21' W 071°02'2 4.7
2017-Nov-14 05:00N 42°20' W 070°59'4 7.3
2017-Nov-14 04:30N 42°22' W 070°55'4 7.6
2017-Nov-14 04:00N 42°22' W 070°50'4 8.9
2017-Nov-14 03:30N 42°19' W 070°46'4 8.5
2017-Nov-14 03:00N 42°16' W 070°41'4 8.8
2017-Nov-14 02:30N 42°12' W 070°39'  
2017-Nov-11 04:54N 40°57' W 073°54'4 9.3
2017-Nov-11 04:30N 40°54' W 073°55'4 8.7
2017-Nov-11 04:00N 40°50' W 073°58'4 8.3
2017-Nov-11 03:30N 40°46' W 074°00'4 7.6
2017-Nov-11 03:01N 40°43' W 074°02'1 2.9
2017-Nov-11 02:31N 40°41' W 074°01'4 8.6
2017-Nov-11 02:00N 40°45' W 073°58'5 9.4
2017-Nov-11 01:30N 40°48' W 073°53'4 8.9
2017-Nov-11 01:00N 40°49' W 073°47'5 9.4
2017-Nov-11 00:28N 40°53' W 073°43'49 9.6
2017-Nov-10 19:18N 41°11' W 072°42'310.3
2017-Nov-10 19:00N 41°12' W 072°38'510.4
2017-Nov-10 18:30N 41°12' W 072°31'510.6
2017-Nov-10 18:01N 41°13' W 072°24'610.9
2017-Nov-10 17:30N 41°14' W 072°17'92 7.7
2017-Nov-10 05:27N 42°08' W 070°36'4 9.6
2017-Nov-10 05:00N 42°11' W 070°39'5 9.5
2017-Nov-10 04:30N 42°16' W 070°41'5 9.0
2017-Nov-10 04:00N 42°19' W 070°45'5 9.3
2017-Nov-10 03:31N 42°22' W 070°49'4 8.5
2017-Nov-10 03:00N 42°22' W 070°55'4 8.2
2017-Nov-10 02:30N 42°20' W 071°00'2 4.1
2017-Nov-10 02:00N 42°22' W 071°02'0 0.2
2017-Nov-10 01:30N 42°22' W 071°02'1 2.9
2017-Nov-10 01:00N 42°23' W 071°02'1 2.1
2017-Nov-10 00:30N 42°24' W 071°01'0 0.0
2017-Nov-10 00:00N 42°24' W 071°01'0 0.0
2017-Nov-09 23:30N 42°24' W 071°01'0 0.0
2017-Nov-09 23:01N 42°24' W 071°01'0 0.0
2017-Nov-09 22:30N 42°24' W 071°01'0 0.0
2017-Nov-09 22:00N 42°24' W 071°01'0 0.0
2017-Nov-09 21:30N 42°24' W 071°01'0 0.0
2017-Nov-09 21:01N 42°24' W 071°01'0 0.0
2017-Nov-09 20:30N 42°24' W 071°01'0 0.0
2017-Nov-09 20:00N 42°24' W 071°01'0 0.0
2017-Nov-09 19:30N 42°24' W 071°01'0 0.0
2017-Nov-09 19:01N 42°24' W 071°01'0 0.0
2017-Nov-09 18:30N 42°24' W 071°01'0 0.0
2017-Nov-09 18:00N 42°24' W 071°01'0 0.0
2017-Nov-09 17:30N 42°24' W 071°01'0 0.1
2017-Nov-09 17:00N 42°24' W 071°01'2 3.4
2017-Nov-09 16:31N 42°23' W 071°03'1 0.7
2017-Nov-09 15:43N 42°23' W 071°03'0 0.1
2017-Nov-09 15:21N 42°23' W 071°03'0 0.0
2017-Nov-09 15:00N 42°23' W 071°03'0 0.0
2017-Nov-09 14:31N 42°23' W 071°03'0 0.0
2017-Nov-09 13:31N 42°23' W 071°03'0 0.0
2017-Nov-09 13:30N 42°23' W 071°03'0 0.0
2017-Nov-09 12:50N 42°23' W 071°03'0 0.0
2017-Nov-09 12:29N 42°23' W 071°03'0 0.0
2017-Nov-09 12:00N 42°23' W 071°03'0 0.0
2017-Nov-09 11:29N 42°23' W 071°03'0 0.0
2017-Nov-09 11:00N 42°23' W 071°03'0 0.0
2017-Nov-09 10:29N 42°23' W 071°03'0 0.0
2017-Nov-09 10:00N 42°23' W 071°03'0 0.0
2017-Nov-09 09:28N 42°23' W 071°03'0 0.0
2017-Nov-09 08:57N 42°23' W 071°03'0 0.0
2017-Nov-09 08:30N 42°23' W 071°03'0 0.0
2017-Nov-09 06:31N 42°23' W 071°03'0 0.0
2017-Nov-09 06:30N 42°23' W 071°03'0 0.0
2017-Nov-09 05:49N 42°23' W 071°03'0 0.0
2017-Nov-09 05:29N 42°23' W 071°03'0 0.0
2017-Nov-09 05:00N 42°23' W 071°03'0 0.0
2017-Nov-09 04:18N 42°23' W 071°03'0 0.0
2017-Nov-09 04:00N 42°23' W 071°03'0 0.0
2017-Nov-09 03:30N 42°23' W 071°03'0 0.0
2017-Nov-09 03:00N 42°23' W 071°03'0 0.1
2017-Nov-09 02:09N 42°23' W 071°03'0 0.7
2017-Nov-09 01:59N 42°23' W 071°03'2 4.3
2017-Nov-09 01:30N 42°21' W 071°02'4 8.4
2017-Nov-09 01:00N 42°21' W 070°56'4 8.2
2017-Nov-09 00:30N 42°23' W 070°52'4 8.3
2017-Nov-09 00:01N 42°21' W 070°47'5 9.0
2017-Nov-08 23:30N 42°18' W 070°43'4 8.7
2017-Nov-08 23:00N 42°14' W 070°40'49 4.7
2017-Nov-08 12:38N 41°34' W 071°19'3 9.2
2017-Nov-08 12:19N 41°37' W 071°18'3 9.1
2017-Nov-08 12:00N 41°40' W 071°19'4 8.8
2017-Nov-08 11:30N 41°44' W 071°22'3 6.8
2017-Nov-08 11:00N 41°47' W 071°22'0 0.0
2017-Nov-08 10:17N 41°47' W 071°22'0 0.0
2017-Nov-08 09:59N 41°47' W 071°22'0 0.0
2017-Nov-08 09:29N 41°47' W 071°22'0 0.0
2017-Nov-08 08:59N 41°47' W 071°22'0 0.0
2017-Nov-08 08:29N 41°47' W 071°22'0 0.0
2017-Nov-08 07:59N 41°47' W 071°22'0 0.0
2017-Nov-08 07:29N 41°47' W 071°22'0 0.0
2017-Nov-08 07:00N 41°47' W 071°22'0 0.0
2017-Nov-08 06:30N 41°47' W 071°22'0 0.0
2017-Nov-08 06:00N 41°47' W 071°22'0 0.0
2017-Nov-08 05:24N 41°47' W 071°22'0 0.0
2017-Nov-08 05:00N 41°47' W 071°22'0 0.0
2017-Nov-08 04:30N 41°47' W 071°22'0 0.0
2017-Nov-08 03:53N 41°47' W 071°22'0 0.0
2017-Nov-08 03:30N 41°47' W 071°22'0 0.0
2017-Nov-08 03:00N 41°47' W 071°22'0 0.0
2017-Nov-08 02:30N 41°47' W 071°22'0 0.0
2017-Nov-08 01:54N 41°47' W 071°22'  

Dump ship's entire track history